Time;durP1;ratioP1;P1;durP2;ratioP2;P2;SDS_P1;SDS_P2;PMS_P1;PMS_P2;Temp;Humidity;BMP_temperature;BMP_pressure;BME280_temperature;BME280_humidity;BME280_pressure;Samples;Min_cycle;Max_cycle;Signal;HPM_P1;HPM_P2
2022/05/23 00:01:45;;;;;;;1.55;1.10;;;;;;;;;;5013287;28;20101;-63
2022/05/23 00:04:11;;;;;;;1.95;1.00;;;;;;;;;;5012565;28;20365;-63
2022/05/23 00:06:37;;;;;;;2.60;1.10;;;;;;;;;;5011945;28;20487;-62
2022/05/23 00:09:03;;;;;;;1.63;1.13;;;;;;;;;;5011895;28;20427;-62
2022/05/23 00:11:29;;;;;;;1.65;1.25;;;;;;;;;;5011889;28;20065;-62
2022/05/23 00:13:55;;;;;;;1.30;1.00;;;;;;;;;;5012712;28;20079;-63
2022/05/23 00:16:23;;;;;;;2.22;0.85;;;;;;;;;;5012035;28;20037;-61
2022/05/23 00:18:49;;;;;;;1.30;1.20;;;;;;;;;;5012345;28;20034;-62
2022/05/23 00:21:16;;;;;;;1.52;1.00;;;;;;;;;;5012588;28;20034;-62
2022/05/23 00:23:42;;;;;;;1.75;1.08;;;;;;;;;;5010375;28;20597;-62
2022/05/23 00:26:10;;;;;;;1.15;0.93;;;;;;;;;;5012508;28;20026;-62
2022/05/23 00:28:36;;;;;;;1.30;1.10;;;;;;;;;;5011511;28;20022;-62
2022/05/23 00:31:02;;;;;;;1.42;1.08;;;;;;;;;;5012166;28;20029;-64
2022/05/23 00:36:13;;;;;;;1.67;0.95;;;;;;;;;;5012332;28;20040;-63
2022/05/23 00:38:39;;;;;;;1.75;1.30;;;;;;;;;;5010977;28;20132;-63
2022/05/23 00:44:07;;;;;;;2.13;0.88;;;;;;;;;;5012002;28;20048;-63
2022/05/23 00:46:34;;;;;;;3.03;1.42;;;;;;;;;;5010428;28;20484;-62
2022/05/23 00:49:01;;;;;;;1.65;1.25;;;;;;;;;;5011924;28;20501;-62
2022/05/23 00:51:28;;;;;;;1.20;1.08;;;;;;;;;;5011321;28;20029;-62
2022/05/23 00:53:55;;;;;;;1.35;0.82;;;;;;;;;;5011447;28;20391;-62
2022/05/23 00:56:25;;;;;;;1.55;1.02;;;;;;;;;;5011803;28;20383;-61
2022/05/23 00:58:53;;;;;;;2.58;1.10;;;;;;;;;;5005292;28;20395;-62
2022/05/23 01:01:21;;;;;;;1.38;0.93;;;;;;;;;;5012133;28;20038;-63
2022/05/23 01:03:47;;;;;;;1.73;1.13;;;;;;;;;;5011279;28;20030;-63
2022/05/23 01:06:13;;;;;;;3.38;1.40;;;;;;;;;;5011614;28;20053;-62
2022/05/23 01:08:40;;;;;;;1.35;0.82;;;;;;;;;;5010791;28;20030;-62
2022/05/23 01:11:07;;;;;;;1.85;1.15;;;;;;;;;;5011824;28;20096;-62
2022/05/23 01:13:33;;;;;;;1.42;1.02;;;;;;;;;;5011205;28;20106;-63
2022/05/23 01:15:59;;;;;;;1.23;0.88;;;;;;;;;;5011835;28;20025;-63
2022/05/23 01:18:25;;;;;;;1.38;1.10;;;;;;;;;;5011124;28;20096;-61
2022/05/23 01:20:54;;;;;;;1.42;0.95;;;;;;;;;;5011773;28;20034;-63
2022/05/23 01:23:28;;;;;;;1.85;0.82;;;;;;;;;;5011579;28;20084;-63
2022/05/23 01:25:54;;;;;;;1.15;1.05;;;;;;;;;;5011526;28;20030;-63
2022/05/23 01:28:20;;;;;;;1.85;1.00;;;;;;;;;;5011785;28;20383;-63
2022/05/23 01:30:47;;;;;;;2.03;0.88;;;;;;;;;;5010596;28;20037;-63
2022/05/23 01:33:13;;;;;;;2.13;0.95;;;;;;;;;;5011768;28;20140;-62
2022/05/23 01:35:40;;;;;;;1.40;0.90;;;;;;;;;;5010738;28;20034;-62
2022/05/23 01:38:06;;;;;;;3.05;1.67;;;;;;;;;;5011476;28;20025;-63
2022/05/23 01:40:32;;;;;;;1.77;1.10;;;;;;;;;;5010507;28;20032;-62
2022/05/23 01:42:58;;;;;;;2.53;1.20;;;;;;;;;;5011623;28;20052;-63
2022/05/23 01:45:26;;;;;;;1.10;0.80;;;;;;;;;;5010514;28;20089;-61
2022/05/23 01:47:53;;;;;;;1.63;0.90;;;;;;;;;;5011401;28;20045;-63
2022/05/23 01:50:20;;;;;;;1.20;1.10;;;;;;;;;;5011301;28;20026;-63
2022/05/23 01:52:46;;;;;;;1.38;0.88;;;;;;;;;;5010264;28;20590;-63
2022/05/23 01:55:12;;;;;;;1.80;1.00;;;;;;;;;;5010176;28;20133;-63
2022/05/23 01:57:38;;;;;;;2.00;1.00;;;;;;;;;;5011110;28;20482;-63
2022/05/23 02:02:51;;;;;;;1.38;0.90;;;;;;;;;;5014672;28;20096;-62
2022/05/23 02:05:17;;;;;;;1.17;0.90;;;;;;;;;;5014731;28;20022;-62
2022/05/23 02:07:43;;;;;;;1.30;1.00;;;;;;;;;;5013956;28;20034;-62
2022/05/23 02:10:10;;;;;;;1.85;1.20;;;;;;;;;;5014596;28;20041;-63
2022/05/23 02:12:36;;;;;;;1.67;1.00;;;;;;;;;;5014072;28;20378;-62
2022/05/23 02:15:02;;;;;;;1.58;1.00;;;;;;;;;;5014542;28;20030;-62
2022/05/23 02:17:28;;;;;;;0.77;0.70;;;;;;;;;;5014206;28;20036;-61
2022/05/23 02:19:54;;;;;;;3.05;1.10;;;;;;;;;;5014321;28;20397;-62
2022/05/23 02:22:20;;;;;;;1.92;1.25;;;;;;;;;;5014411;28;20121;-63
2022/05/23 02:24:46;;;;;;;1.00;0.88;;;;;;;;;;5013528;28;20022;-62
2022/05/23 02:27:12;;;;;;;1.60;0.98;;;;;;;;;;5014690;28;20041;-63
2022/05/23 02:29:38;;;;;;;1.27;1.05;;;;;;;;;;5013458;28;20030;-63
2022/05/23 02:32:04;;;;;;;1.40;1.05;;;;;;;;;;5014169;28;20030;-62
2022/05/23 02:34:30;;;;;;;2.00;1.30;;;;;;;;;;5013703;28;20407;-62
2022/05/23 02:36:56;;;;;;;2.03;1.20;;;;;;;;;;5014307;28;20104;-63
2022/05/23 02:39:22;;;;;;;2.03;1.02;;;;;;;;;;5014119;28;20032;-62
2022/05/23 02:41:50;;;;;;;1.00;0.80;;;;;;;;;;5013236;28;20026;-63
2022/05/23 02:44:16;;;;;;;3.88;1.13;;;;;;;;;;5014121;28;20050;-63
2022/05/23 02:46:42;;;;;;;2.22;0.85;;;;;;;;;;5013503;28;20058;-63
2022/05/23 02:49:08;;;;;;;2.17;0.80;;;;;;;;;;5013986;28;20117;-63
2022/05/23 02:51:34;;;;;;;1.90;1.20;;;;;;;;;;5013113;28;20025;-62
2022/05/23 02:54:00;;;;;;;1.40;0.88;;;;;;;;;;5014044;28;20466;-63
2022/05/23 02:56:26;;;;;;;3.20;1.00;;;;;;;;;;5013424;28;20029;-61
2022/05/23 02:58:52;;;;;;;1.60;0.88;;;;;;;;;;5013235;28;20045;-62
2022/05/23 03:01:19;;;;;;;0.70;0.70;;;;;;;;;;5013749;28;20463;-62
2022/05/23 03:03:45;;;;;;;1.27;0.98;;;;;;;;;;5012753;28;20077;-62
2022/05/23 03:06:12;;;;;;;1.42;0.85;;;;;;;;;;5013712;28;20029;-63
2022/05/23 03:08:38;;;;;;;1.35;1.00;;;;;;;;;;5012676;28;20038;-62
2022/05/23 03:11:05;;;;;;;1.27;0.95;;;;;;;;;;5013581;28;20459;-62
2022/05/23 03:13:31;;;;;;;1.42;0.98;;;;;;;;;;5013199;28;20038;-61
2022/05/23 03:15:58;;;;;;;1.17;0.80;;;;;;;;;;5013551;28;20021;-62
2022/05/23 03:18:25;;;;;;;1.50;1.13;;;;;;;;;;5013671;28;20034;-62
2022/05/23 03:21:00;;;;;;;3.15;1.27;;;;;;;;;;5012617;28;20017;-62
2022/05/23 03:28:56;;;;;;;1.92;1.00;;;;;;;;;;5013371;28;20084;-63
2022/05/23 03:31:22;;;;;;;1.42;1.10;;;;;;;;;;5013173;28;20026;-63
2022/05/23 03:33:48;;;;;;;1.10;0.80;;;;;;;;;;5012699;28;20856;-63
2022/05/23 03:36:14;;;;;;;1.45;1.20;;;;;;;;;;5013048;28;20033;-63
2022/05/23 03:38:40;;;;;;;2.45;1.02;;;;;;;;;;5012868;28;20030;-63
2022/05/23 03:41:07;;;;;;;2.03;1.00;;;;;;;;;;5012879;28;20046;-62
2022/05/23 03:43:33;;;;;;;1.35;1.00;;;;;;;;;;5012138;28;20462;-61
2022/05/23 03:46:06;;;;;;;1.73;1.10;;;;;;;;;;5013003;28;20074;-62
2022/05/23 03:48:32;;;;;;;1.48;1.10;;;;;;;;;;5012731;28;20037;-61
2022/05/23 03:50:59;;;;;;;1.67;0.90;;;;;;;;;;5012771;28;20033;-62
2022/05/23 03:53:25;;;;;;;1.27;0.85;;;;;;;;;;5012688;28;20487;-63
2022/05/23 03:55:51;;;;;;;1.60;0.90;;;;;;;;;;5012222;28;20026;-63
2022/05/23 03:58:17;;;;;;;1.33;0.98;;;;;;;;;;5012294;28;20427;-62
2022/05/23 04:00:48;;;;;;;2.13;1.00;;;;;;;;;;5011989;28;20509;-63
2022/05/23 04:03:15;;;;;;;1.25;0.95;;;;;;;;;;5012685;28;20037;-63
2022/05/23 04:05:41;;;;;;;1.30;1.05;;;;;;;;;;5011644;28;20038;-63
2022/05/23 04:08:08;;;;;;;1.60;1.10;;;;;;;;;;5012648;28;20141;-63
2022/05/23 04:10:34;;;;;;;1.65;1.00;;;;;;;;;;5012113;28;20026;-61
2022/05/23 04:13:02;;;;;;;1.38;1.20;;;;;;;;;;5012512;28;20041;-63
2022/05/23 04:15:28;;;;;;;1.95;0.80;;;;;;;;;;5012539;28;20037;-63
2022/05/23 04:17:54;;;;;;;1.42;1.20;;;;;;;;;;5012444;28;20022;-63
2022/05/23 04:20:20;;;;;;;2.65;1.10;;;;;;;;;;5012202;28;20022;-63
2022/05/23 04:22:46;;;;;;;1.33;1.10;;;;;;;;;;5011812;28;20386;-62
2022/05/23 04:25:12;;;;;;;1.65;1.25;;;;;;;;;;5012797;28;20112;-63
2022/05/23 04:27:38;;;;;;;1.55;0.90;;;;;;;;;;5011743;28;20109;-62
2022/05/23 04:30:05;;;;;;;1.48;1.00;;;;;;;;;;5012976;28;20114;-63
2022/05/23 04:35:17;;;;;;;1.50;1.20;;;;;;;;;;5012488;28;20045;-63
2022/05/23 04:37:48;;;;;;;1.00;0.80;;;;;;;;;;5011821;28;20018;-63
2022/05/23 04:40:16;;;;;;;0.93;0.80;;;;;;;;;;5012726;28;20037;-63
2022/05/23 04:42:42;;;;;;;1.25;1.10;;;;;;;;;;5011557;28;20037;-63
2022/05/23 04:45:10;;;;;;;1.75;0.95;;;;;;;;;;5012502;28;20029;-63
2022/05/23 04:50:21;;;;;;;1.77;1.20;;;;;;;;;;5012282;28;20514;-63
2022/05/23 04:52:47;;;;;;;2.58;1.08;;;;;;;;;;5011410;28;20021;-63
2022/05/23 04:55:14;;;;;;;1.42;0.80;;;;;;;;;;5012325;28;20080;-63
2022/05/23 04:57:40;;;;;;;1.73;1.20;;;;;;;;;;5011483;28;20022;-63
2022/05/23 05:00:07;;;;;;;2.58;1.38;;;;;;;;;;5012063;28;20076;-63
2022/05/23 05:02:35;;;;;;;2.25;1.45;;;;;;;;;;5012027;28;20510;-61
2022/05/23 05:05:01;;;;;;;2.85;1.15;;;;;;;;;;5012119;28;20037;-63
2022/05/23 05:07:27;;;;;;;2.30;1.35;;;;;;;;;;5012193;28;20022;-63
2022/05/23 05:09:53;;;;;;;2.67;0.93;;;;;;;;;;5011156;28;20091;-63
2022/05/23 05:12:19;;;;;;;1.25;0.90;;;;;;;;;;5012126;28;20084;-62
2022/05/23 05:14:45;;;;;;;1.85;1.45;;;;;;;;;;5010983;28;20022;-63
2022/05/23 05:17:11;;;;;;;1.50;0.98;;;;;;;;;;5012406;28;20022;-63
2022/05/23 05:19:37;;;;;;;1.58;1.17;;;;;;;;;;5011301;28;20037;-61
2022/05/23 05:22:03;;;;;;;3.22;1.33;;;;;;;;;;5012134;28;20022;-63
2022/05/23 05:24:32;;;;;;;0.95;0.85;;;;;;;;;;5011990;28;20026;-63
2022/05/23 05:26:58;;;;;;;1.05;0.80;;;;;;;;;;5011096;28;20119;-63
2022/05/23 05:29:25;;;;;;;1.58;1.10;;;;;;;;;;5011933;28;20033;-63
2022/05/23 05:31:53;;;;;;;2.35;1.00;;;;;;;;;;5012549;28;20034;-63
2022/05/23 05:34:29;;;;;;;1.88;0.93;;;;;;;;;;5015275;28;20054;-64
2022/05/23 05:36:59;;;;;;;2.33;1.23;;;;;;;;;;5014824;28;20647;-62
2022/05/23 05:39:30;;;;;;;1.15;1.05;;;;;;;;;;5015819;28;20511;-61
2022/05/23 05:42:03;;;;;;;1.23;1.02;;;;;;;;;;5014905;28;20114;-61
2022/05/23 05:44:31;;;;;;;1.42;0.88;;;;;;;;;;5015600;28;20069;-62
2022/05/23 05:47:00;;;;;;;1.60;0.82;;;;;;;;;;5015180;28;20077;-63
2022/05/23 05:49:27;;;;;;;5.82;1.30;;;;;;;;;;5015743;28;20029;-61
2022/05/23 05:51:55;;;;;;;4.35;1.80;;;;;;;;;;5014830;28;20053;-61
2022/05/23 05:54:23;;;;;;;1.75;1.50;;;;;;;;;;5015467;28;20030;-61
2022/05/23 05:56:50;;;;;;;3.17;1.55;;;;;;;;;;5014723;28;20022;-62
2022/05/23 05:59:17;;;;;;;5.15;2.00;;;;;;;;;;5015186;28;20057;-63
2022/05/23 06:01:43;;;;;;;4.75;1.48;;;;;;;;;;5014597;28;20045;-64
2022/05/23 06:04:09;;;;;;;4.00;1.50;;;;;;;;;;5015274;28;20033;-64
2022/05/23 06:12:05;;;;;;;4.47;1.70;;;;;;;;;;5014741;28;20036;-59
2022/05/23 06:14:31;;;;;;;4.03;1.80;;;;;;;;;;5014927;28;20032;-60
2022/05/23 06:16:57;;;;;;;2.67;1.40;;;;;;;;;;5014244;28;20467;-59
2022/05/23 06:19:23;;;;;;;3.58;1.80;;;;;;;;;;5014191;28;20026;-59
2022/05/23 06:21:49;;;;;;;3.30;1.85;;;;;;;;;;5013408;28;20036;-59
2022/05/23 06:24:15;;;;;;;4.57;1.55;;;;;;;;;;5014171;28;20038;-59
2022/05/23 06:26:41;;;;;;;3.45;1.63;;;;;;;;;;5013872;28;20026;-58
2022/05/23 06:29:07;;;;;;;3.22;1.95;;;;;;;;;;5014951;28;20468;-58
2022/05/23 06:31:34;;;;;;;3.03;1.65;;;;;;;;;;5014166;28;20030;-58
2022/05/23 06:34:00;;;;;;;4.00;1.60;;;;;;;;;;5013594;28;20571;-59
2022/05/23 06:36:26;;;;;;;3.45;1.45;;;;;;;;;;5014743;28;20029;-59
2022/05/23 06:38:52;;;;;;;3.38;1.58;;;;;;;;;;5013874;28;20037;-59
2022/05/23 06:41:18;;;;;;;2.85;1.40;;;;;;;;;;5014760;28;20026;-59
2022/05/23 06:43:44;;;;;;;3.10;1.70;;;;;;;;;;5013138;28;20037;-59
2022/05/23 06:46:12;;;;;;;2.05;1.55;;;;;;;;;;5013750;28;20188;-59
2022/05/23 06:48:38;;;;;;;7.35;2.63;;;;;;;;;;5014211;28;20038;-59
2022/05/23 06:51:05;;;;;;;2.33;1.42;;;;;;;;;;5014285;28;20022;-59
2022/05/23 06:53:31;;;;;;;2.88;1.65;;;;;;;;;;5014438;28;20033;-59
2022/05/23 06:55:57;;;;;;;5.63;1.52;;;;;;;;;;5013565;28;20053;-59
2022/05/23 06:58:24;;;;;;;3.15;1.60;;;;;;;;;;5021512;28;20026;-59
2022/05/23 07:00:50;;;;;;;6.40;2.38;;;;;;;;;;5000488;28;20144;-60
2022/05/23 07:03:16;;;;;;;6.68;2.03;;;;;;;;;;5014028;28;20038;-61
2022/05/23 07:13:56;;;;;;;2.50;1.02;;;;;;;;;;5012168;28;20045;-60
2022/05/23 07:16:23;;;;;;;3.88;1.52;;;;;;;;;;5012798;28;20046;-61
2022/05/23 07:18:49;;;;;;;2.60;1.17;;;;;;;;;;5012196;28;20384;-60
2022/05/23 07:21:15;;;;;;;2.22;1.23;;;;;;;;;;5012737;28;20045;-60
2022/05/23 07:23:42;;;;;;;3.65;1.20;;;;;;;;;;5012346;28;20049;-60
2022/05/23 07:26:09;;;;;;;2.28;1.23;;;;;;;;;;5012474;28;20087;-60
2022/05/23 07:28:36;;;;;;;3.17;1.40;;;;;;;;;;5012816;28;20026;-60
2022/05/23 07:31:03;;;;;;;6.63;1.45;;;;;;;;;;5011448;28;20021;-60
2022/05/23 07:33:29;;;;;;;3.92;1.27;;;;;;;;;;5005316;28;20639;-60
2022/05/23 07:35:59;;;;;;;4.03;2.25;;;;;;;;;;5005372;28;20021;-61
2022/05/23 07:38:26;;;;;;;3.95;1.52;;;;;;;;;;5000177;28;20442;-60
2022/05/23 07:40:52;;;;;;;1.92;1.30;;;;;;;;;;4992279;28;20018;-60
2022/05/23 07:43:19;;;;;;;3.42;1.38;;;;;;;;;;4992936;28;20050;-60
2022/05/23 07:45:45;;;;;;;2.35;1.38;;;;;;;;;;4991536;28;20061;-60
2022/05/23 07:48:11;;;;;;;1.35;0.88;;;;;;;;;;4992602;28;20059;-60
2022/05/23 07:50:38;;;;;;;2.42;1.10;;;;;;;;;;4992628;28;20033;-60
2022/05/23 08:01:18;;;;;;;3.72;1.30;;;;;;;;;;5012181;28;20428;-60
2022/05/23 08:03:46;;;;;;;2.15;1.10;;;;;;;;;;5011251;28;20033;-60
2022/05/23 08:06:12;;;;;;;2.53;1.15;;;;;;;;;;5003097;28;20109;-60
2022/05/23 08:08:38;;;;;;;2.38;1.38;;;;;;;;;;5012539;28;20234;-61
2022/05/23 08:11:08;;;;;;;3.05;1.40;;;;;;;;;;5012928;28;20057;-61
2022/05/23 08:13:34;;;;;;;1.98;1.17;;;;;;;;;;5011471;28;20440;-60
2022/05/23 08:16:01;;;;;;;3.28;1.17;;;;;;;;;;5011039;28;20037;-60
2022/05/23 08:18:27;;;;;;;2.85;1.15;;;;;;;;;;5011431;28;20365;-60
2022/05/23 08:20:53;;;;;;;2.55;1.70;;;;;;;;;;5010055;28;20028;-60
2022/05/23 08:23:19;;;;;;;2.47;1.27;;;;;;;;;;5011704;28;20034;-61
2022/05/23 08:25:45;;;;;;;1.65;1.25;;;;;;;;;;5011860;28;20429;-60
2022/05/23 08:28:11;;;;;;;1.85;1.48;;;;;;;;;;5011396;28;20026;-60
2022/05/23 08:30:37;;;;;;;2.22;1.38;;;;;;;;;;5011513;28;20033;-60
2022/05/23 08:33:03;;;;;;;2.25;1.70;;;;;;;;;;5010565;28;20599;-60
2022/05/23 08:35:29;;;;;;;2.38;1.20;;;;;;;;;;5011220;28;20029;-61
2022/05/23 08:37:55;;;;;;;3.65;1.08;;;;;;;;;;5010079;28;20026;-60
2022/05/23 08:40:23;;;;;;;1.23;1.00;;;;;;;;;;5011087;28;20041;-60
2022/05/23 08:42:56;;;;;;;5.53;1.77;;;;;;;;;;5010659;28;20683;-60
2022/05/23 08:45:35;;;;;;;2.95;1.25;;;;;;;;;;5010815;28;20061;-60
2022/05/23 08:48:04;;;;;;;3.80;2.00;;;;;;;;;;5010419;28;20148;-60
2022/05/23 08:50:49;;;;;;;1.65;1.10;;;;;;;;;;5010997;28;20025;-60
2022/05/23 08:53:20;;;;;;;3.50;1.25;;;;;;;;;;5011138;28;20464;-60
2022/05/23 08:55:52;;;;;;;2.63;1.20;;;;;;;;;;5010401;28;20030;-60
2022/05/23 08:58:47;;;;;;;2.28;1.38;;;;;;;;;;5011142;28;20283;-60
2022/05/23 09:01:17;;;;;;;1.77;1.33;;;;;;;;;;4994041;28;20034;-60
2022/05/23 09:03:52;;;;;;;3.58;1.50;;;;;;;;;;5010521;28;20038;-60
2022/05/23 09:06:22;;;;;;;1.35;1.20;;;;;;;;;;5009253;28;20022;-60
2022/05/23 09:08:52;;;;;;;5.23;1.50;;;;;;;;;;5010066;28;20480;-60
2022/05/23 09:11:27;;;;;;;2.90;1.40;;;;;;;;;;5010968;28;20125;-60
2022/05/23 09:13:53;;;;;;;3.13;1.60;;;;;;;;;;5010102;28;20471;-60
2022/05/23 09:16:19;;;;;;;2.40;1.55;;;;;;;;;;5010810;28;20026;-60
2022/05/23 09:18:50;;;;;;;2.80;1.45;;;;;;;;;;5010130;28;20058;-60
2022/05/23 09:21:16;;;;;;;4.10;1.55;;;;;;;;;;5010840;28;20030;-60
2022/05/23 09:23:47;;;;;;;2.30;1.70;;;;;;;;;;5010523;28;20037;-61
2022/05/23 09:26:26;;;;;;;3.73;1.53;;;;;;;;;;5007234;28;20120;-60
2022/05/23 09:28:52;;;;;;;2.72;1.40;;;;;;;;;;5012412;28;20025;-61
2022/05/23 09:31:36;;;;;;;1.83;1.25;;;;;;;;;;5011652;28;20026;-61
2022/05/23 09:34:02;;;;;;;2.70;1.33;;;;;;;;;;5011269;28;20034;-60
2022/05/23 09:36:36;;;;;;;2.58;1.33;;;;;;;;;;5010471;28;20034;-60
2022/05/23 09:39:05;;;;;;;3.20;1.88;;;;;;;;;;5009830;28;20034;-61
2022/05/23 09:49:52;;;;;;;2.08;1.10;;;;;;;;;;5009334;28;20127;-61
2022/05/23 09:52:37;;;;;;;3.80;1.40;;;;;;;;;;5010560;28;20022;-60
2022/05/23 09:55:05;;;;;;;3.55;1.48;;;;;;;;;;5009476;28;20128;-60
2022/05/23 09:57:32;;;;;;;4.63;1.40;;;;;;;;;;5010382;28;20406;-61
2022/05/23 10:00:04;;;;;;;2.20;1.30;;;;;;;;;;5012391;28;20033;-63
2022/05/23 10:02:30;;;;;;;;;;;;;;;;;;5010844;28;20040;-61
2022/05/23 10:04:56;;;;;;;5.25;1.58;;;;;;;;;;5009351;28;20289;-61
2022/05/23 10:07:28;;;;;;;2.15;1.40;;;;;;;;;;5009928;28;20030;-61
2022/05/23 10:09:56;;;;;;;2.88;1.67;;;;;;;;;;5009817;28;20435;-60
2022/05/23 10:12:23;;;;;;;3.53;1.33;;;;;;;;;;4993705;28;20034;-60
2022/05/23 10:15:01;;;;;;;5.05;1.90;;;;;;;;;;4989966;28;20022;-59
2022/05/23 10:17:29;;;;;;;3.63;1.30;;;;;;;;;;5010525;28;20103;-60
2022/05/23 10:20:15;;;;;;;4.00;1.50;;;;;;;;;;5012271;28;20022;-59
2022/05/23 10:22:53;;;;;;;2.03;1.40;;;;;;;;;;5013703;28;20364;-60
2022/05/23 10:25:20;;;;;;;3.78;1.50;;;;;;;;;;5005207;28;20068;-60
2022/05/23 10:27:53;;;;;;;2.83;1.88;;;;;;;;;;4993680;28;20026;-60
2022/05/23 10:30:20;;;;;;;3.70;1.58;;;;;;;;;;4994126;28;20038;-60
2022/05/23 10:33:09;;;;;;;2.33;1.13;;;;;;;;;;4993327;28;20034;-60
2022/05/23 10:35:37;;;;;;;2.58;1.80;;;;;;;;;;4988234;28;20038;-60
2022/05/23 10:43:57;;;;;;;3.22;1.75;;;;;;;;;;5012968;28;20043;-60
2022/05/23 10:46:24;;;;;;;2.10;1.40;;;;;;;;;;5012949;28;20054;-60
2022/05/23 10:48:54;;;;;;;3.05;1.45;;;;;;;;;;5012673;28;20033;-60
2022/05/23 10:51:39;;;;;;;2.80;1.65;;;;;;;;;;5013103;28;20029;-60
2022/05/23 10:54:09;;;;;;;1.75;1.33;;;;;;;;;;4994729;28;20045;-60
2022/05/23 10:56:37;;;;;;;1.70;1.40;;;;;;;;;;5012775;28;20033;-61
2022/05/23 10:59:17;;;;;;;2.20;1.10;;;;;;;;;;5012630;28;20030;-59
2022/05/23 11:02:03;;;;;;;3.10;1.40;;;;;;;;;;5013001;28;20026;-60
2022/05/23 11:04:29;;;;;;;4.07;1.63;;;;;;;;;;5012837;28;20584;-60
2022/05/23 11:07:13;;;;;;;5.00;2.42;;;;;;;;;;5011759;28;20030;-60
2022/05/23 11:09:51;;;;;;;2.17;1.27;;;;;;;;;;5002403;28;20061;-60
2022/05/23 11:12:22;;;;;;;1.88;1.60;;;;;;;;;;4993386;28;20361;-59
2022/05/23 11:15:07;;;;;;;5.18;2.15;;;;;;;;;;4992952;28;20118;-60
2022/05/23 11:17:37;;;;;;;2.38;1.98;;;;;;;;;;4993118;28;20042;-59
2022/05/23 11:20:10;;;;;;;1.90;1.52;;;;;;;;;;5002144;28;20141;-60
2022/05/23 11:22:42;;;;;;;3.40;1.83;;;;;;;;;;5012380;28;20084;-59
2022/05/23 11:25:08;;;;;;;3.45;2.15;;;;;;;;;;4993714;28;20599;-59
2022/05/23 11:35:56;;;;;;;6.40;2.20;;;;;;;;;;4991991;28;20034;-60
2022/05/23 11:38:22;;;;;;;5.43;1.90;;;;;;;;;;5003968;28;20022;-60
2022/05/23 11:40:51;;;;;;;4.75;2.08;;;;;;;;;;5011913;28;20471;-60
2022/05/23 11:43:19;;;;;;;6.15;1.75;;;;;;;;;;5012233;28;20088;-60
2022/05/23 11:46:04;;;;;;;4.03;1.90;;;;;;;;;;5011780;28;20064;-60
2022/05/23 11:48:35;;;;;;;3.13;1.80;;;;;;;;;;5012122;28;20040;-60
2022/05/23 11:51:29;;;;;;;4.72;1.90;;;;;;;;;;5011463;28;20076;-60
2022/05/23 11:54:03;;;;;;;5.80;2.05;;;;;;;;;;5009290;28;20034;-60
2022/05/23 11:56:45;;;;;;;4.82;2.28;;;;;;;;;;5011802;28;20037;-60
2022/05/23 11:59:12;;;;;;;2.47;2.00;;;;;;;;;;5011035;28;20053;-60
2022/05/23 12:01:39;;;;;;;4.68;2.42;;;;;;;;;;5011842;28;20038;-60
2022/05/23 12:04:05;;;;;;;2.85;1.55;;;;;;;;;;5011037;28;20034;-60
2022/05/23 12:06:32;;;;;;;3.60;1.70;;;;;;;;;;5011529;28;20366;-60
2022/05/23 12:08:58;;;;;;;3.30;1.77;;;;;;;;;;5010449;28;20037;-60
2022/05/23 12:11:31;;;;;;;2.00;1.38;;;;;;;;;;5011644;28;20403;-60
2022/05/23 12:14:13;;;;;;;2.50;1.50;;;;;;;;;;5010928;28;20073;-60
2022/05/23 12:17:02;;;;;;;4.43;1.88;;;;;;;;;;5011557;28;20045;-60
2022/05/23 12:19:48;;;;;;;3.45;1.58;;;;;;;;;;5011513;28;20030;-60
2022/05/23 12:22:18;;;;;;;2.33;1.50;;;;;;;;;;5011371;28;20026;-60
2022/05/23 12:25:02;;;;;;;4.65;1.63;;;;;;;;;;5010543;28;20091;-60
2022/05/23 12:27:30;;;;;;;5.18;1.60;;;;;;;;;;5011551;28;20109;-60
2022/05/23 12:30:15;;;;;;;3.33;1.67;;;;;;;;;;4999978;28;20053;-60
2022/05/23 12:32:41;;;;;;;4.60;1.50;;;;;;;;;;4991886;28;20034;-60
2022/05/23 12:35:07;;;;;;;4.45;1.55;;;;;;;;;;4990678;28;20710;-60
2022/05/23 12:37:36;;;;;;;1.98;1.50;;;;;;;;;;4993676;28;20046;-60
2022/05/23 12:40:15;;;;;;;3.50;1.42;;;;;;;;;;4997536;28;20022;-59
2022/05/23 12:42:45;;;;;;;3.28;1.40;;;;;;;;;;5010724;28;20026;-60
2022/05/23 12:45:28;;;;;;;3.35;1.38;;;;;;;;;;5010129;28;20103;-59
2022/05/23 12:48:00;;;;;;;4.60;1.60;;;;;;;;;;5009969;28;20488;-60
2022/05/23 12:51:01;;;;;;;3.70;1.67;;;;;;;;;;5010529;28;20437;-60
2022/05/23 12:53:45;;;;;;;3.30;1.60;;;;;;;;;;4916526;29;20389;-60
2022/05/23 12:56:33;;;;;;;3.65;1.40;;;;;;;;;;5000665;28;20057;-60
2022/05/23 12:59:03;;;;;;;5.20;1.98;;;;;;;;;;5010346;28;20029;-60
2022/05/23 13:01:30;;;;;;;4.35;1.70;;;;;;;;;;5010959;28;20363;-60
2022/05/23 13:04:17;;;;;;;4.70;1.90;;;;;;;;;;5010241;28;20117;-60
2022/05/23 13:06:46;;;;;;;4.57;1.42;;;;;;;;;;5010669;28;20022;-61
2022/05/23 13:09:15;;;;;;;3.25;1.63;;;;;;;;;;5009733;28;20034;-61
2022/05/23 13:11:44;;;;;;;4.35;1.27;;;;;;;;;;5010882;28;20034;-60
2022/05/23 13:14:10;;;;;;;2.28;1.30;;;;;;;;;;5009776;28;20026;-60
2022/05/23 13:16:38;;;;;;;4.22;1.73;;;;;;;;;;5010844;28;20087;-60
2022/05/23 13:22:10;;;;;;;5.47;1.65;;;;;;;;;;5009881;28;20109;-60
2022/05/23 13:24:50;;;;;;;5.15;1.60;;;;;;;;;;5010292;28;20426;-60
2022/05/23 13:27:23;;;;;;;5.75;1.55;;;;;;;;;;5010725;28;20026;-60
2022/05/23 13:29:51;;;;;;;3.03;1.98;;;;;;;;;;5010493;28;20498;-60
2022/05/23 13:32:17;;;;;;;4.45;1.90;;;;;;;;;;5010808;28;20037;-60
2022/05/23 13:34:44;;;;;;;4.53;1.75;;;;;;;;;;5010665;28;20025;-60
2022/05/23 13:37:12;;;;;;;2.22;1.40;;;;;;;;;;5009678;28;20041;-60
2022/05/23 13:39:45;;;;;;;4.05;1.45;;;;;;;;;;5010128;28;20133;-60
2022/05/23 13:42:21;;;;;;;3.78;1.20;;;;;;;;;;5009775;28;20179;-60
2022/05/23 13:44:48;;;;;;;3.40;1.70;;;;;;;;;;5010468;28;20129;-60
2022/05/23 13:47:18;;;;;;;4.65;1.92;;;;;;;;;;5009922;28;20050;-60
2022/05/23 13:50:05;;;;;;;3.22;1.35;;;;;;;;;;5010238;28;20028;-60
2022/05/23 13:52:39;;;;;;;6.93;1.73;;;;;;;;;;5011536;28;20017;-60
2022/05/23 13:55:09;;;;;;;2.78;1.58;;;;;;;;;;5013181;28;20025;-60
2022/05/23 13:57:40;;;;;;;7.07;1.50;;;;;;;;;;5014223;28;20076;-60
2022/05/23 14:00:09;;;;;;;5.40;1.55;;;;;;;;;;5013425;28;20057;-59
2022/05/23 14:02:40;;;;;;;4.75;1.90;;;;;;;;;;5013609;28;20038;-61
2022/05/23 14:05:07;;;;;;;8.15;1.63;;;;;;;;;;5013519;28;20562;-61
2022/05/23 14:07:36;;;;;;;4.60;2.00;;;;;;;;;;5013902;28;20095;-60
2022/05/23 14:10:03;;;;;;;6.55;2.10;;;;;;;;;;5013129;28;20022;-60
2022/05/23 14:12:34;;;;;;;2.90;1.48;;;;;;;;;;5014235;28;20459;-60
2022/05/23 14:15:11;;;;;;;4.05;1.33;;;;;;;;;;5013158;28;20049;-60
2022/05/23 14:17:39;;;;;;;3.13;1.70;;;;;;;;;;5013793;28;20026;-60
2022/05/23 14:20:23;;;;;;;3.33;1.55;;;;;;;;;;5013329;28;20040;-60
2022/05/23 14:23:19;;;;;;;6.40;1.40;;;;;;;;;;5013445;28;20546;-60
2022/05/23 14:25:46;;;;;;;4.10;1.73;;;;;;;;;;4976632;28;20043;-60
2022/05/23 14:28:17;;;;;;;2.92;1.30;;;;;;;;;;5012854;28;20026;-61
2022/05/23 14:30:45;;;;;;;7.28;1.95;;;;;;;;;;5013368;28;20097;-60
2022/05/23 14:33:30;;;;;;;2.80;1.13;;;;;;;;;;5013013;28;20087;-60
2022/05/23 14:35:56;;;;;;;2.85;1.10;;;;;;;;;;5012934;28;20026;-60
2022/05/23 14:38:42;;;;;;;4.32;1.80;;;;;;;;;;5013426;28;20072;-60
2022/05/23 14:41:22;;;;;;;3.28;1.10;;;;;;;;;;5005180;28;20038;-60
2022/05/23 14:43:56;;;;;;;3.35;1.30;;;;;;;;;;5013288;28;20034;-60
2022/05/23 14:46:27;;;;;;;3.70;1.48;;;;;;;;;;5013097;28;20056;-61
2022/05/23 14:48:57;;;;;;;1.85;1.40;;;;;;;;;;5012627;28;20045;-60
2022/05/23 14:51:28;;;;;;;5.18;1.90;;;;;;;;;;5013336;28;20018;-60
2022/05/23 14:56:43;;;;;;;4.25;1.42;;;;;;;;;;5013361;28;20033;-60
2022/05/23 15:01:59;;;;;;;4.00;1.48;;;;;;;;;;5012472;28;20446;-60
2022/05/23 15:04:29;;;;;;;3.88;1.65;;;;;;;;;;5012539;28;20065;-60
2022/05/23 15:06:56;;;;;;;4.70;1.40;;;;;;;;;;5012243;28;20089;-60
2022/05/23 15:09:22;;;;;;;2.65;1.27;;;;;;;;;;5012870;28;20076;-60
2022/05/23 15:11:48;;;;;;;7.03;2.00;;;;;;;;;;5012757;28;20096;-60
2022/05/23 15:14:15;;;;;;;2.55;1.60;;;;;;;;;;5012148;28;20056;-60
2022/05/23 15:16:42;;;;;;;3.30;1.40;;;;;;;;;;5012974;28;20410;-60
2022/05/23 15:19:09;;;;;;;4.75;1.88;;;;;;;;;;5012161;28;20041;-60
2022/05/23 15:21:36;;;;;;;3.78;1.77;;;;;;;;;;5012355;28;20050;-60
2022/05/23 15:24:02;;;;;;;4.13;1.70;;;;;;;;;;5011988;28;20040;-61
2022/05/23 15:26:30;;;;;;;4.60;1.55;;;;;;;;;;5012664;28;20068;-61
2022/05/23 15:28:56;;;;;;;5.95;1.88;;;;;;;;;;5011577;28;20058;-61
2022/05/23 15:31:23;;;;;;;6.63;1.80;;;;;;;;;;4995096;28;20022;-61
2022/05/23 15:33:50;;;;;;;5.50;2.55;;;;;;;;;;5012555;28;20364;-60
2022/05/23 15:36:17;;;;;;;2.63;1.50;;;;;;;;;;5011473;28;20110;-60
2022/05/23 15:38:43;;;;;;;5.00;2.85;;;;;;;;;;5012000;28;20018;-60
2022/05/23 15:41:10;;;;;;;6.03;2.40;;;;;;;;;;5011380;28;20196;-61
2022/05/23 15:43:36;;;;;;;4.80;2.05;;;;;;;;;;5011795;28;20029;-60
2022/05/23 15:46:03;;;;;;;6.30;2.28;;;;;;;;;;4998845;28;20395;-58
2022/05/23 15:48:29;;;;;;;3.72;1.98;;;;;;;;;;4993657;28;20037;-58
2022/05/23 15:50:55;;;;;;;6.60;2.85;;;;;;;;;;4992467;28;20030;-59
2022/05/23 15:53:21;;;;;;;3.40;1.98;;;;;;;;;;4996588;28;20018;-58
2022/05/23 15:55:50;;;;;;;5.00;2.40;;;;;;;;;;5012239;28;20076;-58
2022/05/23 15:58:17;;;;;;;2.90;1.70;;;;;;;;;;5011152;28;20014;-58
2022/05/23 16:00:43;;;;;;;5.55;2.08;;;;;;;;;;5012076;28;20061;-58
2022/05/23 16:03:09;;;;;;;6.85;2.45;;;;;;;;;;5011130;28;20038;-59
2022/05/23 16:05:37;;;;;;;4.55;2.10;;;;;;;;;;5011767;28;20029;-58
2022/05/23 16:08:04;;;;;;;6.85;3.13;;;;;;;;;;5011249;28;20026;-58